sensor_id;sensor_type;location;lat;lon;timestamp;P1;durP1;ratioP1;P2;durP2;ratioP2
9288;SDS011;4683;50.864;12.086;2024-03-06T00:01:45;28.87;;;23.67;;
9288;SDS011;4683;50.864;12.086;2024-03-06T00:04:14;30.70;;;22.97;;
9288;SDS011;4683;50.864;12.086;2024-03-06T00:06:43;30.30;;;23.17;;
9288;SDS011;4683;50.864;12.086;2024-03-06T00:09:14;32.87;;;24.47;;
9288;SDS011;4683;50.864;12.086;2024-03-06T00:11:43;25.93;;;21.70;;
9288;SDS011;4683;50.864;12.086;2024-03-06T00:14:12;29.67;;;22.43;;
9288;SDS011;4683;50.864;12.086;2024-03-06T00:16:42;27.30;;;22.80;;
9288;SDS011;4683;50.864;12.086;2024-03-06T00:19:14;27.80;;;21.40;;
9288;SDS011;4683;50.864;12.086;2024-03-06T00:21:43;25.47;;;20.50;;
9288;SDS011;4683;50.864;12.086;2024-03-06T00:24:15;28.23;;;21.53;;
9288;SDS011;4683;50.864;12.086;2024-03-06T00:26:44;24.23;;;20.20;;
9288;SDS011;4683;50.864;12.086;2024-03-06T00:29:13;28.80;;;21.37;;
9288;SDS011;4683;50.864;12.086;2024-03-06T00:31:45;25.87;;;19.87;;
9288;SDS011;4683;50.864;12.086;2024-03-06T00:34:13;27.00;;;21.10;;
9288;SDS011;4683;50.864;12.086;2024-03-06T00:36:43;28.30;;;20.93;;
9288;SDS011;4683;50.864;12.086;2024-03-06T00:39:13;24.33;;;19.43;;
9288;SDS011;4683;50.864;12.086;2024-03-06T00:41:42;26.57;;;20.10;;
9288;SDS011;4683;50.864;12.086;2024-03-06T00:44:12;27.77;;;19.63;;
9288;SDS011;4683;50.864;12.086;2024-03-06T00:46:46;22.30;;;19.27;;
9288;SDS011;4683;50.864;12.086;2024-03-06T00:49:14;25.53;;;20.27;;
9288;SDS011;4683;50.864;12.086;2024-03-06T00:51:43;26.57;;;20.00;;
9288;SDS011;4683;50.864;12.086;2024-03-06T00:54:12;22.47;;;18.53;;
9288;SDS011;4683;50.864;12.086;2024-03-06T00:56:41;23.90;;;19.00;;
9288;SDS011;4683;50.864;12.086;2024-03-06T00:59:10;23.20;;;19.53;;
9288;SDS011;4683;50.864;12.086;2024-03-06T01:01:39;23.87;;;18.67;;
9288;SDS011;4683;50.864;12.086;2024-03-06T01:04:10;23.37;;;18.73;;
9288;SDS011;4683;50.864;12.086;2024-03-06T01:06:41;24.63;;;19.33;;
9288;SDS011;4683;50.864;12.086;2024-03-06T01:09:10;22.53;;;19.10;;
9288;SDS011;4683;50.864;12.086;2024-03-06T01:11:39;25.50;;;18.73;;
9288;SDS011;4683;50.864;12.086;2024-03-06T01:14:08;24.50;;;19.53;;
9288;SDS011;4683;50.864;12.086;2024-03-06T01:16:38;23.63;;;17.90;;
9288;SDS011;4683;50.864;12.086;2024-03-06T01:19:08;21.30;;;17.87;;
9288;SDS011;4683;50.864;12.086;2024-03-06T01:21:38;24.53;;;18.20;;
9288;SDS011;4683;50.864;12.086;2024-03-06T01:24:08;23.80;;;17.87;;
9288;SDS011;4683;50.864;12.086;2024-03-06T01:26:38;22.10;;;17.97;;
9288;SDS011;4683;50.864;12.086;2024-03-06T01:29:07;20.60;;;17.13;;
9288;SDS011;4683;50.864;12.086;2024-03-06T01:31:36;20.60;;;16.93;;
9288;SDS011;4683;50.864;12.086;2024-03-06T01:34:04;20.90;;;17.27;;
9288;SDS011;4683;50.864;12.086;2024-03-06T01:36:35;21.07;;;17.30;;
9288;SDS011;4683;50.864;12.086;2024-03-06T01:39:03;21.83;;;17.80;;
9288;SDS011;4683;50.864;12.086;2024-03-06T01:41:34;19.40;;;17.00;;
9288;SDS011;4683;50.864;12.086;2024-03-06T01:44:04;22.80;;;17.63;;
9288;SDS011;4683;50.864;12.086;2024-03-06T01:46:33;20.30;;;16.53;;
9288;SDS011;4683;50.864;12.086;2024-03-06T01:49:05;21.37;;;17.77;;
9288;SDS011;4683;50.864;12.086;2024-03-06T01:51:36;21.40;;;16.97;;
9288;SDS011;4683;50.864;12.086;2024-03-06T01:54:06;24.33;;;17.43;;
9288;SDS011;4683;50.864;12.086;2024-03-06T01:56:36;23.70;;;17.80;;
9288;SDS011;4683;50.864;12.086;2024-03-06T01:59:11;21.27;;;17.60;;
9288;SDS011;4683;50.864;12.086;2024-03-06T02:01:41;22.70;;;17.10;;
9288;SDS011;4683;50.864;12.086;2024-03-06T02:04:11;21.37;;;16.70;;
9288;SDS011;4683;50.864;12.086;2024-03-06T02:06:42;20.53;;;16.83;;
9288;SDS011;4683;50.864;12.086;2024-03-06T02:09:12;23.07;;;17.73;;
9288;SDS011;4683;50.864;12.086;2024-03-06T02:11:55;22.43;;;17.90;;
9288;SDS011;4683;50.864;12.086;2024-03-06T02:14:23;22.30;;;18.60;;
9288;SDS011;4683;50.864;12.086;2024-03-06T02:16:53;19.37;;;17.23;;
9288;SDS011;4683;50.864;12.086;2024-03-06T02:19:21;19.97;;;17.90;;
9288;SDS011;4683;50.864;12.086;2024-03-06T02:21:51;21.63;;;18.00;;
9288;SDS011;4683;50.864;12.086;2024-03-06T02:24:20;24.00;;;17.50;;
9288;SDS011;4683;50.864;12.086;2024-03-06T02:26:48;21.10;;;17.57;;
9288;SDS011;4683;50.864;12.086;2024-03-06T02:29:18;20.73;;;18.07;;
9288;SDS011;4683;50.864;12.086;2024-03-06T02:31:49;23.87;;;18.47;;
9288;SDS011;4683;50.864;12.086;2024-03-06T02:34:18;22.80;;;17.50;;
9288;SDS011;4683;50.864;12.086;2024-03-06T02:36:48;19.03;;;17.03;;
9288;SDS011;4683;50.864;12.086;2024-03-06T02:39:19;22.50;;;18.37;;
9288;SDS011;4683;50.864;12.086;2024-03-06T02:41:48;23.33;;;17.53;;
9288;SDS011;4683;50.864;12.086;2024-03-06T02:44:18;24.83;;;19.07;;
9288;SDS011;4683;50.864;12.086;2024-03-06T02:46:47;23.17;;;18.63;;
9288;SDS011;4683;50.864;12.086;2024-03-06T02:49:17;24.23;;;17.97;;
9288;SDS011;4683;50.864;12.086;2024-03-06T02:51:47;23.70;;;17.90;;
9288;SDS011;4683;50.864;12.086;2024-03-06T02:54:16;24.07;;;18.40;;
9288;SDS011;4683;50.864;12.086;2024-03-06T02:56:45;21.97;;;18.50;;
9288;SDS011;4683;50.864;12.086;2024-03-06T02:59:14;25.50;;;18.93;;
9288;SDS011;4683;50.864;12.086;2024-03-06T03:01:44;24.73;;;18.77;;
9288;SDS011;4683;50.864;12.086;2024-03-06T03:04:13;23.20;;;18.13;;
9288;SDS011;4683;50.864;12.086;2024-03-06T03:06:42;26.63;;;19.90;;
9288;SDS011;4683;50.864;12.086;2024-03-06T03:09:13;25.50;;;18.90;;
9288;SDS011;4683;50.864;12.086;2024-03-06T03:11:43;21.13;;;17.17;;
9288;SDS011;4683;50.864;12.086;2024-03-06T03:14:16;25.17;;;18.90;;
9288;SDS011;4683;50.864;12.086;2024-03-06T03:16:45;24.57;;;18.33;;
9288;SDS011;4683;50.864;12.086;2024-03-06T03:19:15;24.10;;;18.93;;
9288;SDS011;4683;50.864;12.086;2024-03-06T03:21:44;24.60;;;19.50;;
9288;SDS011;4683;50.864;12.086;2024-03-06T03:24:13;23.13;;;18.57;;
9288;SDS011;4683;50.864;12.086;2024-03-06T03:26:45;23.50;;;19.33;;
9288;SDS011;4683;50.864;12.086;2024-03-06T03:29:14;22.90;;;18.73;;
9288;SDS011;4683;50.864;12.086;2024-03-06T03:31:43;21.63;;;19.00;;
9288;SDS011;4683;50.864;12.086;2024-03-06T03:34:11;22.90;;;18.57;;
9288;SDS011;4683;50.864;12.086;2024-03-06T03:36:41;24.40;;;19.20;;
9288;SDS011;4683;50.864;12.086;2024-03-06T03:39:11;24.83;;;18.50;;
9288;SDS011;4683;50.864;12.086;2024-03-06T03:41:46;24.43;;;20.13;;
9288;SDS011;4683;50.864;12.086;2024-03-06T03:44:17;23.53;;;19.73;;
9288;SDS011;4683;50.864;12.086;2024-03-06T03:46:46;21.30;;;18.23;;
9288;SDS011;4683;50.864;12.086;2024-03-06T03:49:16;22.00;;;18.53;;
9288;SDS011;4683;50.864;12.086;2024-03-06T03:51:45;22.47;;;18.50;;
9288;SDS011;4683;50.864;12.086;2024-03-06T03:54:14;23.70;;;18.23;;
9288;SDS011;4683;50.864;12.086;2024-03-06T03:56:43;22.73;;;19.47;;
9288;SDS011;4683;50.864;12.086;2024-03-06T03:59:15;24.73;;;20.43;;
9288;SDS011;4683;50.864;12.086;2024-03-06T04:01:44;26.17;;;20.23;;
9288;SDS011;4683;50.864;12.086;2024-03-06T04:04:14;22.83;;;19.60;;
9288;SDS011;4683;50.864;12.086;2024-03-06T04:06:43;26.47;;;21.00;;
9288;SDS011;4683;50.864;12.086;2024-03-06T04:09:13;26.57;;;19.60;;
9288;SDS011;4683;50.864;12.086;2024-03-06T04:11:47;27.13;;;20.70;;
9288;SDS011;4683;50.864;12.086;2024-03-06T04:14:15;25.93;;;21.03;;
9288;SDS011;4683;50.864;12.086;2024-03-06T04:16:45;28.63;;;21.93;;
9288;SDS011;4683;50.864;12.086;2024-03-06T04:19:14;25.83;;;19.77;;
9288;SDS011;4683;50.864;12.086;2024-03-06T04:21:44;26.33;;;21.40;;
9288;SDS011;4683;50.864;12.086;2024-03-06T04:24:13;25.07;;;19.27;;
9288;SDS011;4683;50.864;12.086;2024-03-06T04:26:43;27.77;;;20.70;;
9288;SDS011;4683;50.864;12.086;2024-03-06T04:29:13;27.43;;;21.00;;
9288;SDS011;4683;50.864;12.086;2024-03-06T04:31:43;27.87;;;20.07;;
9288;SDS011;4683;50.864;12.086;2024-03-06T04:34:12;25.60;;;21.07;;
9288;SDS011;4683;50.864;12.086;2024-03-06T04:36:40;27.37;;;20.50;;
9288;SDS011;4683;50.864;12.086;2024-03-06T04:39:10;22.07;;;18.43;;
9288;SDS011;4683;50.864;12.086;2024-03-06T04:41:39;24.97;;;19.63;;
9288;SDS011;4683;50.864;12.086;2024-03-06T04:44:09;27.70;;;20.47;;
9288;SDS011;4683;50.864;12.086;2024-03-06T04:46:39;23.43;;;19.90;;
9288;SDS011;4683;50.864;12.086;2024-03-06T04:49:08;25.40;;;20.00;;
9288;SDS011;4683;50.864;12.086;2024-03-06T04:51:37;24.07;;;20.30;;
9288;SDS011;4683;50.864;12.086;2024-03-06T04:54:05;27.67;;;19.13;;
9288;SDS011;4683;50.864;12.086;2024-03-06T04:56:34;24.80;;;19.37;;
9288;SDS011;4683;50.864;12.086;2024-03-06T04:59:04;26.73;;;20.90;;
9288;SDS011;4683;50.864;12.086;2024-03-06T05:01:34;28.50;;;20.37;;
9288;SDS011;4683;50.864;12.086;2024-03-06T05:04:04;25.27;;;19.87;;
9288;SDS011;4683;50.864;12.086;2024-03-06T05:06:34;27.83;;;20.93;;
9288;SDS011;4683;50.864;12.086;2024-03-06T05:09:03;26.60;;;19.67;;
9288;SDS011;4683;50.864;12.086;2024-03-06T05:11:33;22.50;;;19.60;;
9288;SDS011;4683;50.864;12.086;2024-03-06T05:14:04;25.87;;;19.37;;
9288;SDS011;4683;50.864;12.086;2024-03-06T05:16:34;27.30;;;19.87;;
9288;SDS011;4683;50.864;12.086;2024-03-06T05:19:03;27.60;;;20.20;;
9288;SDS011;4683;50.864;12.086;2024-03-06T05:21:33;26.63;;;20.10;;
9288;SDS011;4683;50.864;12.086;2024-03-06T05:24:03;28.33;;;20.40;;
9288;SDS011;4683;50.864;12.086;2024-03-06T05:26:32;23.00;;;19.27;;
9288;SDS011;4683;50.864;12.086;2024-03-06T05:29:02;26.47;;;21.50;;
9288;SDS011;4683;50.864;12.086;2024-03-06T05:31:30;27.27;;;20.17;;
9288;SDS011;4683;50.864;12.086;2024-03-06T05:33:59;27.87;;;21.43;;
9288;SDS011;4683;50.864;12.086;2024-03-06T05:36:34;26.97;;;21.33;;
9288;SDS011;4683;50.864;12.086;2024-03-06T05:39:03;28.43;;;20.87;;
9288;SDS011;4683;50.864;12.086;2024-03-06T05:41:35;27.07;;;21.30;;
9288;SDS011;4683;50.864;12.086;2024-03-06T05:44:03;25.17;;;20.60;;
9288;SDS011;4683;50.864;12.086;2024-03-06T05:46:32;26.30;;;21.20;;
9288;SDS011;4683;50.864;12.086;2024-03-06T05:49:01;27.73;;;20.23;;
9288;SDS011;4683;50.864;12.086;2024-03-06T05:51:31;26.47;;;20.23;;
9288;SDS011;4683;50.864;12.086;2024-03-06T05:54:01;32.67;;;23.63;;
9288;SDS011;4683;50.864;12.086;2024-03-06T05:56:33;29.33;;;21.77;;
9288;SDS011;4683;50.864;12.086;2024-03-06T05:59:03;29.43;;;22.20;;
9288;SDS011;4683;50.864;12.086;2024-03-06T06:01:35;29.40;;;21.27;;
9288;SDS011;4683;50.864;12.086;2024-03-06T06:04:04;28.63;;;20.97;;
9288;SDS011;4683;50.864;12.086;2024-03-06T06:06:35;28.83;;;22.07;;
9288;SDS011;4683;50.864;12.086;2024-03-06T06:09:06;27.50;;;21.53;;
9288;SDS011;4683;50.864;12.086;2024-03-06T06:11:39;27.67;;;21.97;;
9288;SDS011;4683;50.864;12.086;2024-03-06T06:14:08;32.00;;;22.20;;
9288;SDS011;4683;50.864;12.086;2024-03-06T06:16:37;31.07;;;22.97;;
9288;SDS011;4683;50.864;12.086;2024-03-06T06:19:07;29.43;;;21.93;;
9288;SDS011;4683;50.864;12.086;2024-03-06T06:21:38;27.83;;;21.90;;
9288;SDS011;4683;50.864;12.086;2024-03-06T06:24:07;29.13;;;21.67;;
9288;SDS011;4683;50.864;12.086;2024-03-06T06:26:35;27.90;;;21.80;;
9288;SDS011;4683;50.864;12.086;2024-03-06T06:29:04;27.17;;;21.97;;
9288;SDS011;4683;50.864;12.086;2024-03-06T06:31:32;32.13;;;22.07;;
9288;SDS011;4683;50.864;12.086;2024-03-06T06:34:01;30.40;;;22.37;;
9288;SDS011;4683;50.864;12.086;2024-03-06T06:36:29;29.63;;;22.70;;
9288;SDS011;4683;50.864;12.086;2024-03-06T06:39:00;28.50;;;21.93;;
9288;SDS011;4683;50.864;12.086;2024-03-06T06:41:32;31.20;;;22.60;;
9288;SDS011;4683;50.864;12.086;2024-03-06T06:44:00;30.37;;;22.43;;
9288;SDS011;4683;50.864;12.086;2024-03-06T06:46:29;27.93;;;21.50;;
9288;SDS011;4683;50.864;12.086;2024-03-06T06:48:57;30.23;;;22.73;;
9288;SDS011;4683;50.864;12.086;2024-03-06T06:51:27;30.60;;;23.43;;
9288;SDS011;4683;50.864;12.086;2024-03-06T06:53:55;30.40;;;22.70;;
9288;SDS011;4683;50.864;12.086;2024-03-06T06:56:27;28.00;;;22.03;;
9288;SDS011;4683;50.864;12.086;2024-03-06T06:58:55;31.60;;;23.17;;
9288;SDS011;4683;50.864;12.086;2024-03-06T07:01:24;31.10;;;23.03;;
9288;SDS011;4683;50.864;12.086;2024-03-06T07:03:53;29.47;;;22.97;;
9288;SDS011;4683;50.864;12.086;2024-03-06T07:06:22;29.23;;;21.73;;
9288;SDS011;4683;50.864;12.086;2024-03-06T07:08:51;30.67;;;23.30;;
9288;SDS011;4683;50.864;12.086;2024-03-06T07:11:21;31.93;;;22.87;;
9288;SDS011;4683;50.864;12.086;2024-03-06T07:13:54;28.60;;;22.20;;
9288;SDS011;4683;50.864;12.086;2024-03-06T07:16:23;30.40;;;23.13;;
9288;SDS011;4683;50.864;12.086;2024-03-06T07:18:53;31.30;;;23.17;;
9288;SDS011;4683;50.864;12.086;2024-03-06T07:21:21;29.83;;;23.17;;
9288;SDS011;4683;50.864;12.086;2024-03-06T07:23:50;28.87;;;22.87;;
9288;SDS011;4683;50.864;12.086;2024-03-06T07:26:23;27.87;;;22.23;;
9288;SDS011;4683;50.864;12.086;2024-03-06T07:28:54;31.67;;;24.53;;
9288;SDS011;4683;50.864;12.086;2024-03-06T07:31:24;25.07;;;21.20;;
9288;SDS011;4683;50.864;12.086;2024-03-06T07:33:53;31.40;;;22.33;;
9288;SDS011;4683;50.864;12.086;2024-03-06T07:36:22;31.43;;;22.83;;
9288;SDS011;4683;50.864;12.086;2024-03-06T07:38:51;30.03;;;22.63;;
9288;SDS011;4683;50.864;12.086;2024-03-06T07:41:21;28.93;;;22.07;;
9288;SDS011;4683;50.864;12.086;2024-03-06T07:43:50;30.07;;;23.10;;
9288;SDS011;4683;50.864;12.086;2024-03-06T07:46:21;31.33;;;22.73;;
9288;SDS011;4683;50.864;12.086;2024-03-06T07:48:51;28.47;;;22.43;;
9288;SDS011;4683;50.864;12.086;2024-03-06T07:51:19;28.40;;;22.23;;
9288;SDS011;4683;50.864;12.086;2024-03-06T07:53:48;28.23;;;22.07;;
9288;SDS011;4683;50.864;12.086;2024-03-06T07:56:18;27.17;;;22.63;;
9288;SDS011;4683;50.864;12.086;2024-03-06T07:58:46;31.13;;;24.37;;
9288;SDS011;4683;50.864;12.086;2024-03-06T08:01:15;29.93;;;22.47;;
9288;SDS011;4683;50.864;12.086;2024-03-06T08:03:46;28.37;;;22.03;;
9288;SDS011;4683;50.864;12.086;2024-03-06T08:06:14;29.50;;;22.40;;
9288;SDS011;4683;50.864;12.086;2024-03-06T08:08:43;31.07;;;23.20;;
9288;SDS011;4683;50.864;12.086;2024-03-06T08:11:12;33.73;;;23.33;;
9288;SDS011;4683;50.864;12.086;2024-03-06T08:13:43;28.90;;;22.33;;
9288;SDS011;4683;50.864;12.086;2024-03-06T08:16:11;27.70;;;21.73;;
9288;SDS011;4683;50.864;12.086;2024-03-06T08:18:41;30.33;;;23.13;;
9288;SDS011;4683;50.864;12.086;2024-03-06T08:21:11;29.33;;;21.60;;
9288;SDS011;4683;50.864;12.086;2024-03-06T08:23:40;30.23;;;22.50;;
9288;SDS011;4683;50.864;12.086;2024-03-06T08:26:12;27.73;;;22.00;;
9288;SDS011;4683;50.864;12.086;2024-03-06T08:28:41;30.53;;;21.90;;
9288;SDS011;4683;50.864;12.086;2024-03-06T08:31:09;28.07;;;21.27;;
9288;SDS011;4683;50.864;12.086;2024-03-06T08:33:38;28.60;;;22.03;;
9288;SDS011;4683;50.864;12.086;2024-03-06T08:36:07;29.73;;;21.87;;
9288;SDS011;4683;50.864;12.086;2024-03-06T08:38:39;27.90;;;21.40;;
9288;SDS011;4683;50.864;12.086;2024-03-06T08:41:09;27.03;;;22.07;;
9288;SDS011;4683;50.864;12.086;2024-03-06T08:43:38;27.17;;;21.80;;
9288;SDS011;4683;50.864;12.086;2024-03-06T08:46:08;28.23;;;21.60;;
9288;SDS011;4683;50.864;12.086;2024-03-06T08:48:38;29.07;;;23.43;;
9288;SDS011;4683;50.864;12.086;2024-03-06T08:51:07;25.73;;;22.17;;
9288;SDS011;4683;50.864;12.086;2024-03-06T08:53:39;32.97;;;25.50;;
9288;SDS011;4683;50.864;12.086;2024-03-06T08:56:08;30.40;;;23.83;;
9288;SDS011;4683;50.864;12.086;2024-03-06T08:58:36;31.60;;;24.00;;
9288;SDS011;4683;50.864;12.086;2024-03-06T09:01:06;30.23;;;23.77;;
9288;SDS011;4683;50.864;12.086;2024-03-06T09:03:35;28.20;;;23.13;;
9288;SDS011;4683;50.864;12.086;2024-03-06T09:06:03;27.83;;;23.60;;
9288;SDS011;4683;50.864;12.086;2024-03-06T09:08:32;31.57;;;23.30;;
9288;SDS011;4683;50.864;12.086;2024-03-06T09:11:02;29.57;;;24.27;;
9288;SDS011;4683;50.864;12.086;2024-03-06T09:13:32;28.10;;;23.03;;
9288;SDS011;4683;50.864;12.086;2024-03-06T09:16:02;29.63;;;24.17;;
9288;SDS011;4683;50.864;12.086;2024-03-06T09:18:32;30.30;;;23.57;;
9288;SDS011;4683;50.864;12.086;2024-03-06T09:21:02;30.93;;;25.13;;
9288;SDS011;4683;50.864;12.086;2024-03-06T09:23:32;31.33;;;25.20;;
9288;SDS011;4683;50.864;12.086;2024-03-06T09:26:02;33.07;;;25.90;;
9288;SDS011;4683;50.864;12.086;2024-03-06T09:28:35;32.33;;;24.70;;
9288;SDS011;4683;50.864;12.086;2024-03-06T09:31:15;32.57;;;24.47;;
9288;SDS011;4683;50.864;12.086;2024-03-06T09:33:47;35.80;;;26.73;;
9288;SDS011;4683;50.864;12.086;2024-03-06T09:36:19;34.60;;;26.53;;
9288;SDS011;4683;50.864;12.086;2024-03-06T09:38:50;30.30;;;25.10;;
9288;SDS011;4683;50.864;12.086;2024-03-06T09:41:23;32.87;;;25.57;;
9288;SDS011;4683;50.864;12.086;2024-03-06T09:43:51;36.53;;;26.80;;
9288;SDS011;4683;50.864;12.086;2024-03-06T09:46:20;32.13;;;25.63;;
9288;SDS011;4683;50.864;12.086;2024-03-06T09:48:49;34.27;;;26.77;;
9288;SDS011;4683;50.864;12.086;2024-03-06T09:51:21;32.20;;;25.93;;
9288;SDS011;4683;50.864;12.086;2024-03-06T09:53:52;32.93;;;25.30;;
9288;SDS011;4683;50.864;12.086;2024-03-06T09:56:24;34.13;;;28.03;;
9288;SDS011;4683;50.864;12.086;2024-03-06T09:58:56;33.43;;;27.63;;
9288;SDS011;4683;50.864;12.086;2024-03-06T10:01:27;35.00;;;28.13;;
9288;SDS011;4683;50.864;12.086;2024-03-06T10:03:58;36.43;;;27.00;;
9288;SDS011;4683;50.864;12.086;2024-03-06T10:06:30;36.50;;;30.00;;
9288;SDS011;4683;50.864;12.086;2024-03-06T10:09:03;37.40;;;28.87;;
9288;SDS011;4683;50.864;12.086;2024-03-06T10:11:39;35.93;;;27.90;;
9288;SDS011;4683;50.864;12.086;2024-03-06T10:14:09;33.40;;;27.07;;
9288;SDS011;4683;50.864;12.086;2024-03-06T10:16:51;37.53;;;27.30;;
9288;SDS011;4683;50.864;12.086;2024-03-06T10:19:31;37.37;;;30.40;;
9288;SDS011;4683;50.864;12.086;2024-03-06T10:22:02;34.80;;;27.47;;
9288;SDS011;4683;50.864;12.086;2024-03-06T10:24:37;40.03;;;30.90;;
9288;SDS011;4683;50.864;12.086;2024-03-06T10:27:13;36.77;;;29.07;;
9288;SDS011;4683;50.864;12.086;2024-03-06T10:29:44;34.43;;;28.00;;
9288;SDS011;4683;50.864;12.086;2024-03-06T10:32:16;35.50;;;26.70;;
9288;SDS011;4683;50.864;12.086;2024-03-06T10:34:47;37.27;;;30.30;;
9288;SDS011;4683;50.864;12.086;2024-03-06T10:37:21;40.07;;;28.30;;
9288;SDS011;4683;50.864;12.086;2024-03-06T10:39:54;37.97;;;29.00;;
9288;SDS011;4683;50.864;12.086;2024-03-06T10:42:35;37.63;;;28.07;;
9288;SDS011;4683;50.864;12.086;2024-03-06T10:45:08;38.00;;;29.03;;
9288;SDS011;4683;50.864;12.086;2024-03-06T10:47:45;35.47;;;26.53;;
9288;SDS011;4683;50.864;12.086;2024-03-06T10:50:16;33.37;;;26.30;;
9288;SDS011;4683;50.864;12.086;2024-03-06T10:52:48;34.57;;;26.50;;
9288;SDS011;4683;50.864;12.086;2024-03-06T10:55:22;35.60;;;26.17;;
9288;SDS011;4683;50.864;12.086;2024-03-06T10:57:55;35.83;;;26.83;;
9288;SDS011;4683;50.864;12.086;2024-03-06T11:00:25;34.30;;;26.13;;
9288;SDS011;4683;50.864;12.086;2024-03-06T11:02:54;32.30;;;24.70;;
9288;SDS011;4683;50.864;12.086;2024-03-06T11:05:27;31.80;;;23.67;;
9288;SDS011;4683;50.864;12.086;2024-03-06T11:07:55;30.53;;;24.80;;
9288;SDS011;4683;50.864;12.086;2024-03-06T11:10:29;33.50;;;25.57;;
9288;SDS011;4683;50.864;12.086;2024-03-06T11:13:02;33.50;;;24.23;;
9288;SDS011;4683;50.864;12.086;2024-03-06T11:15:37;32.60;;;25.33;;
9288;SDS011;4683;50.864;12.086;2024-03-06T11:21:29;29.87;;;23.10;;
9288;SDS011;4683;50.864;12.086;2024-03-06T11:32:37;28.73;;;22.43;;
9288;SDS011;4683;50.864;12.086;2024-03-06T11:35:27;28.10;;;21.87;;
9288;SDS011;4683;50.864;12.086;2024-03-06T11:38:00;27.67;;;21.70;;
9288;SDS011;4683;50.864;12.086;2024-03-06T11:40:42;28.63;;;22.43;;
9288;SDS011;4683;50.864;12.086;2024-03-06T11:43:24;25.60;;;20.67;;
9288;SDS011;4683;50.864;12.086;2024-03-06T11:46:05;23.63;;;19.43;;
9288;SDS011;4683;50.864;12.086;2024-03-06T11:48:36;23.20;;;19.23;;
9288;SDS011;4683;50.864;12.086;2024-03-06T11:51:05;22.87;;;19.27;;
9288;SDS011;4683;50.864;12.086;2024-03-06T11:53:33;21.97;;;18.30;;
9288;SDS011;4683;50.864;12.086;2024-03-06T11:56:21;22.53;;;16.73;;
9288;SDS011;4683;50.864;12.086;2024-03-06T11:58:51;24.37;;;18.60;;
9288;SDS011;4683;50.864;12.086;2024-03-06T12:01:21;24.07;;;20.63;;
9288;SDS011;4683;50.864;12.086;2024-03-06T12:03:51;24.10;;;20.00;;
9288;SDS011;4683;50.864;12.086;2024-03-06T12:06:20;22.17;;;18.67;;
9288;SDS011;4683;50.864;12.086;2024-03-06T12:08:53;23.27;;;20.20;;
9288;SDS011;4683;50.864;12.086;2024-03-06T12:11:21;25.77;;;20.33;;
9288;SDS011;4683;50.864;12.086;2024-03-06T12:13:51;22.73;;;19.50;;
9288;SDS011;4683;50.864;12.086;2024-03-06T12:16:21;26.30;;;20.20;;
9288;SDS011;4683;50.864;12.086;2024-03-06T12:18:55;23.07;;;18.80;;
9288;SDS011;4683;50.864;12.086;2024-03-06T12:21:32;23.03;;;19.73;;
9288;SDS011;4683;50.864;12.086;2024-03-06T12:24:07;22.23;;;18.47;;
9288;SDS011;4683;50.864;12.086;2024-03-06T12:26:44;22.30;;;18.47;;
9288;SDS011;4683;50.864;12.086;2024-03-06T12:29:27;25.70;;;20.30;;
9288;SDS011;4683;50.864;12.086;2024-03-06T12:32:02;20.13;;;18.03;;
9288;SDS011;4683;50.864;12.086;2024-03-06T12:34:32;21.63;;;18.90;;
9288;SDS011;4683;50.864;12.086;2024-03-06T12:37:07;23.07;;;18.93;;
9288;SDS011;4683;50.864;12.086;2024-03-06T12:39:38;22.13;;;18.73;;
9288;SDS011;4683;50.864;12.086;2024-03-06T12:42:08;21.20;;;18.00;;
9288;SDS011;4683;50.864;12.086;2024-03-06T12:44:39;22.90;;;18.67;;
9288;SDS011;4683;50.864;12.086;2024-03-06T12:47:11;23.30;;;18.50;;
9288;SDS011;4683;50.864;12.086;2024-03-06T12:49:41;24.67;;;20.07;;
9288;SDS011;4683;50.864;12.086;2024-03-06T12:52:11;22.03;;;18.67;;
9288;SDS011;4683;50.864;12.086;2024-03-06T12:54:46;25.40;;;19.53;;
9288;SDS011;4683;50.864;12.086;2024-03-06T12:57:16;21.80;;;18.53;;
9288;SDS011;4683;50.864;12.086;2024-03-06T12:59:46;24.67;;;19.20;;
9288;SDS011;4683;50.864;12.086;2024-03-06T13:02:17;24.83;;;19.83;;
9288;SDS011;4683;50.864;12.086;2024-03-06T13:04:51;22.77;;;20.37;;
9288;SDS011;4683;50.864;12.086;2024-03-06T13:07:23;23.80;;;19.30;;
9288;SDS011;4683;50.864;12.086;2024-03-06T13:09:56;21.50;;;19.20;;
9288;SDS011;4683;50.864;12.086;2024-03-06T13:12:26;23.53;;;19.80;;
9288;SDS011;4683;50.864;12.086;2024-03-06T13:14:54;22.87;;;20.10;;
9288;SDS011;4683;50.864;12.086;2024-03-06T13:17:31;22.63;;;19.37;;
9288;SDS011;4683;50.864;12.086;2024-03-06T13:20:08;24.17;;;21.00;;
9288;SDS011;4683;50.864;12.086;2024-03-06T13:22:40;26.27;;;23.10;;
9288;SDS011;4683;50.864;12.086;2024-03-06T13:25:11;23.50;;;21.00;;
9288;SDS011;4683;50.864;12.086;2024-03-06T13:27:42;23.60;;;20.33;;
9288;SDS011;4683;50.864;12.086;2024-03-06T13:30:14;24.77;;;21.37;;
9288;SDS011;4683;50.864;12.086;2024-03-06T13:32:59;24.70;;;21.00;;
9288;SDS011;4683;50.864;12.086;2024-03-06T13:35:29;23.87;;;21.27;;
9288;SDS011;4683;50.864;12.086;2024-03-06T13:38:03;25.57;;;21.30;;
9288;SDS011;4683;50.864;12.086;2024-03-06T13:40:37;24.67;;;21.87;;
9288;SDS011;4683;50.864;12.086;2024-03-06T13:43:24;23.60;;;21.07;;
9288;SDS011;4683;50.864;12.086;2024-03-06T13:46:04;26.07;;;21.50;;
9288;SDS011;4683;50.864;12.086;2024-03-06T13:48:37;25.47;;;21.57;;
9288;SDS011;4683;50.864;12.086;2024-03-06T13:51:08;31.17;;;24.83;;
9288;SDS011;4683;50.864;12.086;2024-03-06T13:53:38;28.77;;;25.73;;
9288;SDS011;4683;50.864;12.086;2024-03-06T13:56:09;30.13;;;26.43;;
9288;SDS011;4683;50.864;12.086;2024-03-06T13:58:38;29.60;;;26.27;;
9288;SDS011;4683;50.864;12.086;2024-03-06T14:01:09;31.20;;;27.33;;
9288;SDS011;4683;50.864;12.086;2024-03-06T14:03:46;32.27;;;28.80;;
9288;SDS011;4683;50.864;12.086;2024-03-06T14:06:18;32.67;;;28.70;;
9288;SDS011;4683;50.864;12.086;2024-03-06T14:09:12;35.07;;;30.30;;
9288;SDS011;4683;50.864;12.086;2024-03-06T14:11:45;31.63;;;27.30;;
9288;SDS011;4683;50.864;12.086;2024-03-06T14:14:35;29.13;;;26.00;;
9288;SDS011;4683;50.864;12.086;2024-03-06T14:17:23;31.77;;;28.10;;
9288;SDS011;4683;50.864;12.086;2024-03-06T14:19:56;28.90;;;25.80;;
9288;SDS011;4683;50.864;12.086;2024-03-06T14:22:32;28.00;;;25.00;;
9288;SDS011;4683;50.864;12.086;2024-03-06T14:25:02;28.10;;;22.90;;
9288;SDS011;4683;50.864;12.086;2024-03-06T14:27:31;26.53;;;22.57;;
9288;SDS011;4683;50.864;12.086;2024-03-06T14:30:03;28.87;;;24.17;;
9288;SDS011;4683;50.864;12.086;2024-03-06T14:32:37;29.03;;;25.07;;
9288;SDS011;4683;50.864;12.086;2024-03-06T14:35:26;25.77;;;21.63;;
9288;SDS011;4683;50.864;12.086;2024-03-06T14:37:58;27.50;;;20.47;;
9288;SDS011;4683;50.864;12.086;2024-03-06T14:40:39;24.93;;;19.10;;
9288;SDS011;4683;50.864;12.086;2024-03-06T14:43:17;23.90;;;20.47;;
9288;SDS011;4683;50.864;12.086;2024-03-06T14:45:48;25.50;;;20.10;;
9288;SDS011;4683;50.864;12.086;2024-03-06T14:48:32;22.23;;;19.60;;
9288;SDS011;4683;50.864;12.086;2024-03-06T14:51:03;20.97;;;18.73;;
9288;SDS011;4683;50.864;12.086;2024-03-06T14:53:36;22.53;;;19.90;;
9288;SDS011;4683;50.864;12.086;2024-03-06T14:56:06;24.80;;;20.47;;
9288;SDS011;4683;50.864;12.086;2024-03-06T14:58:37;22.63;;;20.13;;
9288;SDS011;4683;50.864;12.086;2024-03-06T15:01:05;23.87;;;20.10;;
9288;SDS011;4683;50.864;12.086;2024-03-06T15:03:36;27.03;;;20.57;;
9288;SDS011;4683;50.864;12.086;2024-03-06T15:06:08;22.50;;;19.93;;
9288;SDS011;4683;50.864;12.086;2024-03-06T15:08:42;22.97;;;19.43;;